Ocontofalls, Wisconsin
Current Conditions -  °F | °C
As of 2:35 AM on Saturday 29 Nov 2014 (Local Time) from KOCQ Reporting Station
Broken Clouds Broken Clouds  
Wind Chill: 21°   Ceiling: 7500
Heat Index: 21°   Visibility: 7mi
Dew Point: 21°   Wind: 0mph
Humidity: 100%   Direction: NA
Pressure: 29.79"   Gusts: NA
Location:  44.8816°N, 88.1735°W
Report Text: KOCQ 290835Z AUTO 00000KT 7SM SCT015 BKN075 M06/M06 A2979 RMK AO1 T10601060
Loading
Personal Weather Stations






























Interactive Weather Map New forecast layout! Learn more

10-Day Weather Forecast

Advertisements
Track Severe Weather on mobile